createdAt,value
2022-12-15T00:00:30.824Z,9.67
2022-12-15T00:03:24.321Z,15.07
2022-12-15T00:06:10.985Z,9.17
2022-12-15T00:08:58.489Z,10.40
2022-12-15T00:11:44.897Z,6.20
2022-12-15T00:14:31.658Z,9.77
2022-12-15T00:17:18.473Z,9.57
2022-12-15T00:20:05.158Z,13.33
2022-12-15T00:22:51.531Z,10.70
2022-12-15T00:25:38.262Z,11.50
2022-12-15T00:28:24.846Z,12.10
2022-12-15T00:31:11.469Z,11.33
2022-12-15T00:33:57.912Z,11.20
2022-12-15T00:36:49.751Z,12.43
2022-12-15T00:39:18.389Z,10.37
2022-12-15T00:41:46.300Z,12.23
2022-12-15T00:44:18.971Z,10.37
2022-12-15T00:46:54.649Z,14.30
2022-12-15T00:49:42.750Z,15.32
2022-12-15T00:52:29.575Z,14.93
2022-12-15T00:55:16.021Z,13.47
2022-12-15T00:58:02.581Z,19.50
2022-12-15T01:00:49.749Z,14.03
2022-12-15T01:03:40.615Z,17.67
2022-12-15T01:06:33.111Z,12.93
2022-12-15T01:09:20.380Z,15.63
2022-12-15T01:12:07.336Z,12.03
2022-12-15T01:14:54.455Z,10.50
2022-12-15T01:17:40.855Z,13.47
2022-12-15T01:20:15.685Z,15.77
2022-12-15T01:22:47.288Z,13.55
2022-12-15T01:25:17.309Z,16.03
2022-12-15T01:27:46.001Z,15.97
2022-12-15T01:30:17.960Z,15.50
2022-12-15T01:32:46.497Z,13.50
2022-12-15T01:35:14.626Z,13.50
2022-12-15T01:37:42.453Z,14.50
2022-12-15T01:40:33.830Z,12.47
2022-12-15T01:43:02.000Z,15.50
2022-12-15T01:45:29.864Z,13.83
2022-12-15T01:48:02.457Z,15.23
2022-12-15T01:50:33.137Z,15.27
2022-12-15T01:53:01.933Z,13.00
2022-12-15T01:55:32.152Z,10.07
2022-12-15T01:58:06.901Z,15.67
2022-12-15T02:00:35.685Z,15.38
2022-12-15T02:03:06.532Z,16.53
2022-12-15T02:05:35.493Z,15.77
2022-12-15T02:08:04.945Z,18.43
2022-12-15T02:10:49.236Z,13.97
2022-12-15T02:13:52.551Z,15.27
2022-12-15T02:16:51.588Z,15.53
2022-12-15T02:19:47.924Z,15.60
2022-12-15T02:22:20.357Z,15.37
2022-12-15T02:25:08.947Z,14.27
2022-12-15T02:27:52.062Z,16.40
2022-12-15T02:30:26.331Z,14.50
2022-12-15T02:33:12.381Z,15.63
2022-12-15T02:36:00.445Z,16.27
2022-12-15T02:38:30.905Z,14.77
2022-12-15T02:41:00.817Z,13.80
2022-12-15T02:43:30.626Z,11.33
2022-12-15T02:46:18.013Z,10.80
2022-12-15T02:49:09.583Z,14.70
2022-12-15T02:51:52.416Z,13.97
2022-12-15T02:54:50.842Z,17.40
2022-12-15T02:57:50.462Z,13.57
2022-12-15T03:00:18.946Z,18.13
2022-12-15T03:02:50.977Z,14.47
2022-12-15T03:05:20.317Z,16.60
2022-12-15T03:07:52.481Z,14.57
2022-12-15T03:10:23.495Z,13.83
2022-12-15T03:12:51.898Z,13.87
2022-12-15T03:15:20.526Z,14.43
2022-12-15T03:17:48.314Z,16.93
2022-12-15T03:20:16.317Z,10.47
2022-12-15T03:22:44.580Z,12.17
2022-12-15T03:25:12.602Z,12.03
2022-12-15T03:27:40.556Z,20.07
2022-12-15T03:30:08.850Z,17.03
2022-12-15T03:32:36.717Z,16.37
2022-12-15T03:35:04.821Z,13.47
2022-12-15T03:37:32.871Z,16.00
2022-12-15T03:40:00.754Z,17.13
2022-12-15T03:42:47.379Z,20.50
2022-12-15T03:45:18.927Z,11.30
2022-12-15T03:47:47.539Z,18.30
2022-12-15T03:50:17.924Z,19.40
2022-12-15T03:52:49.373Z,20.33
2022-12-15T03:55:17.360Z,15.70
2022-12-15T03:57:45.176Z,16.07
2022-12-15T04:00:17.945Z,17.87
2022-12-15T04:02:46.348Z,14.83
2022-12-15T04:05:34.201Z,14.93
2022-12-15T04:08:02.421Z,14.83
2022-12-15T04:10:34.637Z,15.20
2022-12-15T04:13:05.808Z,16.80
2022-12-15T04:15:35.206Z,13.83
2022-12-15T04:18:04.565Z,15.97
2022-12-15T04:20:33.181Z,15.43
2022-12-15T04:23:01.050Z,17.50
2022-12-15T04:25:48.109Z,16.90
2022-12-15T04:28:34.456Z,18.80
2022-12-15T04:31:28.834Z,16.00
2022-12-15T04:34:19.545Z,18.97
2022-12-15T04:37:08.525Z,17.33
2022-12-15T04:40:00.860Z,14.43
2022-12-15T04:42:49.292Z,13.97
2022-12-15T04:45:39.042Z,14.33
2022-12-15T04:48:25.717Z,16.97
2022-12-15T04:51:12.391Z,17.60
2022-12-15T04:53:59.308Z,16.20
2022-12-15T04:56:46.004Z,13.47
2022-12-15T04:59:37.374Z,16.27
2022-12-15T05:02:23.923Z,15.73
2022-12-15T05:05:10.872Z,18.43
2022-12-15T05:07:57.448Z,17.23
2022-12-15T05:10:44.069Z,13.77
2022-12-15T05:13:30.949Z,14.53
2022-12-15T05:16:17.926Z,15.93
2022-12-15T05:19:04.512Z,12.97
2022-12-15T05:21:51.298Z,15.27
2022-12-15T05:24:37.764Z,15.20
2022-12-15T05:27:24.429Z,15.10
2022-12-15T05:30:11.259Z,17.37
2022-12-15T05:32:39.266Z,10.60
2022-12-15T05:35:07.322Z,14.27
2022-12-15T05:37:35.137Z,16.50
2022-12-15T05:40:03.231Z,19.10
2022-12-15T05:42:31.081Z,16.67
2022-12-15T05:44:58.861Z,17.50
2022-12-15T05:47:26.802Z,13.37
2022-12-15T05:49:54.668Z,16.33
2022-12-15T05:52:22.736Z,20.37
2022-12-15T05:54:50.498Z,16.93
2022-12-15T05:57:18.388Z,14.40
2022-12-15T05:59:46.337Z,14.17
2022-12-15T06:02:14.304Z,16.00
2022-12-15T06:04:42.455Z,13.07
2022-12-15T06:07:11.705Z,12.60
2022-12-15T06:09:39.594Z,19.07
2022-12-15T06:12:07.585Z,11.47
2022-12-15T06:14:36.314Z,13.57
2022-12-15T06:17:04.184Z,14.00
2022-12-15T06:19:32.018Z,15.17
2022-12-15T06:21:59.872Z,15.97
2022-12-15T06:24:28.027Z,17.20
2022-12-15T06:26:55.996Z,16.17
2022-12-15T06:29:24.076Z,18.67
2022-12-15T06:31:52.004Z,15.93
2022-12-15T06:34:20.034Z,20.10
2022-12-15T06:36:47.905Z,15.03
2022-12-15T06:39:17.008Z,19.77
2022-12-15T06:41:45.559Z,17.10
2022-12-15T06:44:16.937Z,21.13
2022-12-15T06:46:46.464Z,15.43
2022-12-15T06:49:14.916Z,15.43
2022-12-15T06:51:44.019Z,16.70
2022-12-15T06:54:12.258Z,17.37
2022-12-15T06:56:40.915Z,14.40
2022-12-15T06:59:10.510Z,16.17
2022-12-15T07:01:38.664Z,15.47
2022-12-15T07:04:06.813Z,21.83
2022-12-15T07:06:39.784Z,16.23
2022-12-15T07:09:11.652Z,17.50
2022-12-15T07:11:40.515Z,14.80
2022-12-15T07:14:09.064Z,16.70
2022-12-15T07:16:37.166Z,14.27
2022-12-15T07:19:05.307Z,17.33
2022-12-15T07:21:33.428Z,18.40
2022-12-15T07:24:02.213Z,20.70
2022-12-15T07:26:30.608Z,18.80
2022-12-15T07:28:58.625Z,16.17
2022-12-15T07:31:27.070Z,18.17
2022-12-15T07:33:55.151Z,17.23
2022-12-15T07:36:23.304Z,16.07
2022-12-15T07:38:51.879Z,17.53
2022-12-15T07:41:20.863Z,17.87
2022-12-15T07:43:49.433Z,17.80
2022-12-15T07:46:18.206Z,17.87
2022-12-15T07:48:50.344Z,18.27
2022-12-15T07:51:20.278Z,15.63
2022-12-15T07:53:50.148Z,18.93
2022-12-15T07:56:19.742Z,16.47
2022-12-15T07:58:48.061Z,17.53
2022-12-15T08:01:16.408Z,18.33
2022-12-15T08:03:45.294Z,14.20
2022-12-15T08:06:14.866Z,15.87
2022-12-15T08:08:50.659Z,16.80
2022-12-15T08:11:21.220Z,15.93
2022-12-15T08:14:02.507Z,17.73
2022-12-15T08:16:31.842Z,17.43
2022-12-15T08:18:59.814Z,20.53
2022-12-15T08:21:27.589Z,19.10
2022-12-15T08:23:55.506Z,21.63
2022-12-15T08:26:28.480Z,17.73
2022-12-15T08:29:24.407Z,19.48
2022-12-15T08:31:48.794Z,18.63
2022-12-15T08:34:16.723Z,16.73
2022-12-15T08:36:44.535Z,13.63
2022-12-15T08:39:12.523Z,17.00
2022-12-15T08:41:41.217Z,20.63
2022-12-15T08:44:09.343Z,18.57
2022-12-15T08:46:37.256Z,21.50
2022-12-15T08:49:05.328Z,21.50
2022-12-15T08:51:33.834Z,17.50
2022-12-15T08:54:02.511Z,18.47
2022-12-15T08:56:30.781Z,19.43
2022-12-15T08:59:01.129Z,20.00
2022-12-15T09:01:32.006Z,25.03
2022-12-15T09:04:01.399Z,23.10
2022-12-15T09:06:32.542Z,23.30
2022-12-15T09:09:03.907Z,23.30
2022-12-15T09:11:32.360Z,19.33
2022-12-15T09:14:00.287Z,24.20
2022-12-15T09:16:28.486Z,20.47
2022-12-15T09:18:59.135Z,19.73
2022-12-15T09:21:29.813Z,20.97
2022-12-15T09:24:01.627Z,18.47
2022-12-15T09:26:32.061Z,20.90
2022-12-15T09:29:01.743Z,24.93
2022-12-15T09:31:32.571Z,21.47
2022-12-15T09:34:01.545Z,23.10
2022-12-15T09:36:33.013Z,19.73
2022-12-15T09:39:04.039Z,23.90
2022-12-15T09:41:34.572Z,19.33
2022-12-15T09:44:02.425Z,20.93
2022-12-15T09:46:43.683Z,21.20
2022-12-15T09:49:34.053Z,22.13
2022-12-15T09:52:11.015Z,22.17
2022-12-15T09:54:41.740Z,24.13
2022-12-15T09:57:21.641Z,18.70
2022-12-15T10:00:01.719Z,21.87
2022-12-15T10:03:04.239Z,22.70
2022-12-15T10:08:55.896Z,25.60
2022-12-15T10:11:56.899Z,22.33
2022-12-15T10:14:42.634Z,20.30
2022-12-15T10:17:29.414Z,21.80
2022-12-15T10:20:11.940Z,22.80
2022-12-15T10:22:39.948Z,24.07
2022-12-15T10:25:30.858Z,22.97
2022-12-15T10:28:17.083Z,20.50
2022-12-15T10:30:56.839Z,22.80
2022-12-15T10:33:27.650Z,25.90
2022-12-15T10:35:56.182Z,21.20
2022-12-15T10:38:32.592Z,22.47
2022-12-15T10:41:03.444Z,20.40
2022-12-15T10:43:36.997Z,15.07
2022-12-15T10:46:15.779Z,21.03
2022-12-15T10:48:48.687Z,19.53
2022-12-15T10:51:18.604Z,16.47
2022-12-15T10:54:09.833Z,19.03
2022-12-15T10:57:27.748Z,12.40
2022-12-15T11:00:02.089Z,13.77
2022-12-15T11:02:36.834Z,19.45
2022-12-15T11:05:16.605Z,16.98
2022-12-15T11:07:49.865Z,14.90
2022-12-15T11:10:24.964Z,23.47
2022-12-15T11:13:10.620Z,19.42
2022-12-15T11:15:41.886Z,15.03
2022-12-15T11:18:15.336Z,15.53
2022-12-15T11:20:50.496Z,18.27
2022-12-15T11:23:48.940Z,19.17
2022-12-15T11:26:42.692Z,14.07
2022-12-15T11:29:52.061Z,14.77
2022-12-15T11:32:26.109Z,14.90
2022-12-15T11:34:55.261Z,14.43
2022-12-15T11:37:24.039Z,16.80
2022-12-15T11:40:02.440Z,16.30
2022-12-15T11:42:39.299Z,14.33
2022-12-15T11:45:33.075Z,20.33
2022-12-15T11:48:22.595Z,17.83
2022-12-15T11:51:08.783Z,18.23
2022-12-15T11:53:49.311Z,15.87
2022-12-15T11:56:45.416Z,15.97
2022-12-15T11:59:45.813Z,13.90
2022-12-15T12:02:43.111Z,19.00
2022-12-15T12:05:50.175Z,17.70
2022-12-15T12:08:18.468Z,14.27
2022-12-15T12:11:28.683Z,18.87
2022-12-15T12:14:27.684Z,13.20
2022-12-15T12:17:34.240Z,16.03
2022-12-15T12:20:12.826Z,18.40
2022-12-15T12:22:52.576Z,15.03
2022-12-15T12:25:23.054Z,13.38
2022-12-15T12:28:26.447Z,13.90
2022-12-15T12:30:57.366Z,13.70
2022-12-15T12:33:49.330Z,15.15
2022-12-15T12:36:18.113Z,13.52
2022-12-15T12:38:52.696Z,14.25
2022-12-15T12:41:32.647Z,15.73
2022-12-15T12:44:26.627Z,16.20
2022-12-15T12:46:57.222Z,15.85
2022-12-15T12:49:50.282Z,16.20
2022-12-15T12:52:28.484Z,15.75
2022-12-15T12:55:23.868Z,16.25
2022-12-15T12:57:52.272Z,14.25
2022-12-15T13:00:26.110Z,17.52
2022-12-15T13:02:54.212Z,17.73
2022-12-15T13:05:35.574Z,20.33
2022-12-15T13:08:06.489Z,14.63
2022-12-15T13:10:37.246Z,15.00
2022-12-15T13:13:31.252Z,21.25
2022-12-15T13:16:10.864Z,16.63
2022-12-15T13:19:03.470Z,11.88
2022-12-15T13:21:57.980Z,16.30
2022-12-15T13:24:50.361Z,19.08
2022-12-15T13:27:19.904Z,19.55
2022-12-15T13:30:03.079Z,17.17
2022-12-15T13:32:40.248Z,16.63
2022-12-15T13:35:14.817Z,20.38
2022-12-15T13:37:56.125Z,19.17
2022-12-15T13:40:35.438Z,16.65
2022-12-15T13:43:06.805Z,16.63
2022-12-15T13:45:38.529Z,21.77
2022-12-15T13:48:33.742Z,17.50
2022-12-15T13:51:03.285Z,21.75
2022-12-15T13:53:41.998Z,19.10
2022-12-15T13:56:23.779Z,20.15
2022-12-15T13:59:04.941Z,22.90
2022-12-15T14:01:33.842Z,23.27
2022-12-15T14:04:15.791Z,21.93
2022-12-15T14:06:56.526Z,19.58
2022-12-15T14:09:41.209Z,20.40
2022-12-15T14:12:13.709Z,21.23
2022-12-15T14:14:49.223Z,20.73
2022-12-15T14:17:19.457Z,23.42
2022-12-15T14:19:51.141Z,21.92
2022-12-15T14:22:45.492Z,22.58
2022-12-15T14:25:25.598Z,24.30
2022-12-15T14:27:53.465Z,23.48
2022-12-15T14:30:33.069Z,23.65
2022-12-15T14:33:15.935Z,19.77
2022-12-15T14:35:50.275Z,22.23
2022-12-15T14:38:23.688Z,24.58
2022-12-15T14:40:56.154Z,20.33
2022-12-15T14:43:32.075Z,21.07
2022-12-15T14:46:16.754Z,23.80
2022-12-15T14:48:57.295Z,24.37
2022-12-15T14:51:28.901Z,23.10
2022-12-15T14:53:57.428Z,23.03
2022-12-15T14:56:33.337Z,25.03
2022-12-15T14:59:17.302Z,23.77
2022-12-15T15:01:59.841Z,25.60
2022-12-15T15:04:33.162Z,24.70
2022-12-15T15:07:07.605Z,26.30
2022-12-15T15:09:46.201Z,27.17
2022-12-15T15:12:23.373Z,26.07
2022-12-15T15:15:05.863Z,26.43
2022-12-15T15:17:36.648Z,28.83
2022-12-15T15:20:19.038Z,24.70
2022-12-15T15:23:01.909Z,28.27
2022-12-15T15:25:42.562Z,25.20
2022-12-15T15:28:19.730Z,30.67
2022-12-15T15:30:49.044Z,26.90
2022-12-15T15:33:18.241Z,27.80
2022-12-15T15:35:58.406Z,28.40
2022-12-15T15:38:35.714Z,28.80
2022-12-15T15:41:17.493Z,25.93
2022-12-15T15:43:48.668Z,31.50
2022-12-15T15:46:33.696Z,27.33
2022-12-15T15:49:13.896Z,27.95
2022-12-15T15:51:42.005Z,27.53
2022-12-15T15:54:17.955Z,28.50
2022-12-15T15:56:46.176Z,25.33
2022-12-15T15:59:21.000Z,29.60
2022-12-15T16:01:54.753Z,32.72
2022-12-15T16:04:24.027Z,29.53
2022-12-15T16:06:53.585Z,35.07
2022-12-15T16:09:22.496Z,35.10
2022-12-15T16:11:50.768Z,29.10
2022-12-15T16:14:19.132Z,33.90
2022-12-15T16:16:47.456Z,30.97
2022-12-15T16:19:15.597Z,31.80
2022-12-15T16:21:43.924Z,29.67
2022-12-15T16:24:17.574Z,31.10
2022-12-15T16:26:49.438Z,29.03
2022-12-15T16:29:20.040Z,32.13
2022-12-15T16:31:48.462Z,25.20
2022-12-15T16:34:17.504Z,30.37
2022-12-15T16:36:45.857Z,30.07
2022-12-15T16:39:26.570Z,35.37
2022-12-15T16:41:56.296Z,28.47
2022-12-15T16:44:26.345Z,30.53
2022-12-15T16:46:54.426Z,30.77
2022-12-15T16:49:22.731Z,29.53
2022-12-15T16:51:53.960Z,29.87
2022-12-15T16:54:30.902Z,29.93
2022-12-15T16:57:01.224Z,27.33
2022-12-15T16:59:34.014Z,30.00
2022-12-15T17:02:29.183Z,35.83
2022-12-15T17:04:57.544Z,32.40
2022-12-15T17:07:28.001Z,31.27
2022-12-15T17:09:56.705Z,30.93
2022-12-15T17:12:24.773Z,34.97
2022-12-15T17:14:52.729Z,38.00
2022-12-15T17:17:21.299Z,29.40
2022-12-15T17:22:38.849Z,35.13
2022-12-15T17:25:12.938Z,34.67
2022-12-15T17:27:40.919Z,31.90
2022-12-15T17:30:14.576Z,31.87
2022-12-15T17:32:43.912Z,32.97
2022-12-15T17:35:12.501Z,32.00
2022-12-15T17:37:40.978Z,33.83
2022-12-15T17:40:21.211Z,36.27
2022-12-15T17:42:51.515Z,32.03
2022-12-15T17:45:24.637Z,33.93
2022-12-15T17:47:53.743Z,34.77
2022-12-15T17:50:25.236Z,30.93
2022-12-15T17:52:53.442Z,36.77
2022-12-15T17:55:24.549Z,32.63
2022-12-15T17:57:57.206Z,30.10
2022-12-15T18:00:33.025Z,36.33
2022-12-15T18:03:02.279Z,36.30
2022-12-15T18:05:34.883Z,39.37
2022-12-15T18:08:11.792Z,36.17
2022-12-15T18:10:42.478Z,40.80
2022-12-15T18:13:35.400Z,38.93
2022-12-15T18:16:06.257Z,32.60
2022-12-15T18:18:35.084Z,36.60
2022-12-15T18:21:16.345Z,31.80
2022-12-15T18:23:46.166Z,34.77
2022-12-15T18:26:15.045Z,37.53
2022-12-15T18:28:43.862Z,37.97
2022-12-15T18:31:21.448Z,37.47
2022-12-15T18:33:50.006Z,34.90
2022-12-15T18:36:18.754Z,38.77
2022-12-15T18:38:46.880Z,34.70
2022-12-15T18:41:19.655Z,33.83
2022-12-15T18:43:48.934Z,40.73
2022-12-15T18:46:18.819Z,42.67
2022-12-15T18:48:47.015Z,38.63
2022-12-15T18:51:23.276Z,40.00
2022-12-15T18:53:51.234Z,33.93
2022-12-15T18:56:21.599Z,31.40
2022-12-15T18:58:49.574Z,35.17
2022-12-15T19:01:17.742Z,33.90
2022-12-15T19:03:45.782Z,36.07
2022-12-15T19:06:26.046Z,34.33
2022-12-15T19:08:54.889Z,40.20
2022-12-15T19:11:31.306Z,34.47
2022-12-15T19:14:00.828Z,37.87
2022-12-15T19:16:49.611Z,40.53
2022-12-15T19:19:36.475Z,37.20
2022-12-15T19:22:30.748Z,33.90
2022-12-15T19:24:59.628Z,32.43
2022-12-15T19:27:27.783Z,38.23
2022-12-15T19:29:56.496Z,36.93
2022-12-15T19:32:26.721Z,40.43
2022-12-15T19:34:54.608Z,37.27
2022-12-15T19:37:29.974Z,38.60
2022-12-15T19:40:00.321Z,37.40
2022-12-15T19:42:35.586Z,36.30
2022-12-15T19:45:16.480Z,34.60
2022-12-15T19:47:44.687Z,35.57
2022-12-15T19:50:18.024Z,38.60
2022-12-15T19:52:50.204Z,44.23
2022-12-15T19:55:24.088Z,44.63
2022-12-15T19:57:52.013Z,44.03
2022-12-15T20:00:22.310Z,40.73
2022-12-15T20:02:51.695Z,38.53
2022-12-15T20:05:24.300Z,41.30
2022-12-15T20:07:55.282Z,44.23
2022-12-15T20:10:31.798Z,38.20
2022-12-15T20:13:03.243Z,36.63
2022-12-15T20:15:31.480Z,36.00
2022-12-15T20:17:59.808Z,36.93
2022-12-15T20:20:29.280Z,34.77
2022-12-15T20:23:00.151Z,37.70
2022-12-15T20:25:32.287Z,33.40
2022-12-15T20:28:00.861Z,33.80
2022-12-15T20:30:35.511Z,37.53
2022-12-15T20:33:05.144Z,33.83
2022-12-15T20:35:37.569Z,34.60
2022-12-15T20:38:24.941Z,33.60
2022-12-15T20:40:54.052Z,34.43
2022-12-15T20:43:23.112Z,35.97
2022-12-15T20:46:00.559Z,34.53
2022-12-15T20:48:30.469Z,37.40
2022-12-15T20:50:58.442Z,30.37
2022-12-15T20:53:28.455Z,29.97
2022-12-15T20:55:57.204Z,31.23
2022-12-15T20:58:32.699Z,28.07
2022-12-15T21:01:03.612Z,33.57
2022-12-15T21:03:36.155Z,30.87
2022-12-15T21:06:05.133Z,30.60
2022-12-15T21:08:36.102Z,30.87
2022-12-15T21:11:13.597Z,29.20
2022-12-15T21:13:42.865Z,28.67
2022-12-15T21:16:23.075Z,30.93
2022-12-15T21:21:47.910Z,31.23
2022-12-15T21:24:28.168Z,33.13
2022-12-15T21:26:56.415Z,29.77
2022-12-15T21:29:27.831Z,20.40
2022-12-15T21:31:55.847Z,27.13
2022-12-15T21:34:26.912Z,31.57
2022-12-15T21:36:55.696Z,34.43
2022-12-15T21:39:34.367Z,28.73
2022-12-15T21:42:12.982Z,28.67
2022-12-15T21:44:41.725Z,24.30
2022-12-15T21:47:47.797Z,32.10
2022-12-15T21:50:24.663Z,32.58
2022-12-15T21:52:59.714Z,23.17
2022-12-15T21:58:11.406Z,34.53
2022-12-15T22:00:45.702Z,29.50
2022-12-15T22:03:18.757Z,20.60
2022-12-15T22:05:47.594Z,31.50
2022-12-15T22:08:24.891Z,32.27
2022-12-15T22:10:57.497Z,26.73
2022-12-15T22:13:25.552Z,36.33
2022-12-15T22:15:54.710Z,34.13
2022-12-15T22:18:23.553Z,31.10
2022-12-15T22:20:52.686Z,31.23
2022-12-15T22:23:21.179Z,31.80
2022-12-15T22:25:54.177Z,35.50
2022-12-15T22:28:26.059Z,37.40
2022-12-15T22:30:56.941Z,36.80
2022-12-15T22:33:26.237Z,34.07
2022-12-15T22:35:55.664Z,32.10
2022-12-15T22:38:24.228Z,42.73
2022-12-15T22:40:55.540Z,36.03
2022-12-15T22:43:36.000Z,29.13
2022-12-15T22:46:06.415Z,33.43
2022-12-15T22:48:39.231Z,31.43
2022-12-15T22:51:08.157Z,33.77
2022-12-15T22:53:36.306Z,31.30
2022-12-15T22:56:16.284Z,31.50
2022-12-15T22:58:46.827Z,34.00
2022-12-15T23:01:14.853Z,35.47
2022-12-15T23:03:42.956Z,38.17
2022-12-15T23:06:11.152Z,33.20
2022-12-15T23:08:39.109Z,35.87
2022-12-15T23:11:25.569Z,38.30
2022-12-15T23:13:53.607Z,30.37
2022-12-15T23:16:22.960Z,27.37
2022-12-15T23:18:53.212Z,31.77
2022-12-15T23:21:24.765Z,30.83
2022-12-15T23:23:52.861Z,37.10
2022-12-15T23:26:25.928Z,30.50
2022-12-15T23:28:55.226Z,39.57
2022-12-15T23:31:23.380Z,32.40
2022-12-15T23:33:52.152Z,39.70
2022-12-15T23:36:20.290Z,40.27
2022-12-15T23:38:48.264Z,33.10
2022-12-15T23:41:17.975Z,35.07
2022-12-15T23:43:46.108Z,36.43
2022-12-15T23:46:14.201Z,39.40
2022-12-15T23:48:43.677Z,33.07
2022-12-15T23:51:14.817Z,34.47
2022-12-15T23:53:46.274Z,37.17
2022-12-15T23:56:22.930Z,40.33
2022-12-15T23:58:59.007Z,36.07
